createdAt,value
2022-09-09T00:56:44.141Z,100
2022-09-09T01:26:46.139Z,100
2022-09-09T02:26:49.112Z,100
2022-09-09T02:46:49.944Z,100
2022-09-09T03:46:54.511Z,100
2022-09-09T03:56:54.637Z,100
2022-09-09T04:06:55.540Z,100
2022-09-09T04:16:55.977Z,100
2022-09-09T04:26:56.091Z,100
2022-09-09T04:36:56.523Z,100
2022-09-09T04:46:56.952Z,100
2022-09-09T04:56:57.731Z,100
2022-09-09T05:06:58.405Z,100
2022-09-09T05:16:59.471Z,100
2022-09-09T05:26:59.811Z,100
2022-09-09T05:36:59.874Z,100
2022-09-09T06:07:01.030Z,100
2022-09-09T06:37:02.621Z,100
2022-09-09T06:57:15.632Z,100
2022-09-09T07:47:06.630Z,100
2022-09-09T08:07:07.574Z,98
2022-09-09T08:27:08.512Z,96
2022-09-09T08:47:10.128Z,91
2022-09-09T09:17:11.763Z,82
2022-09-09T09:27:12.811Z,81
2022-09-09T09:37:13.084Z,79
2022-09-09T09:47:13.730Z,75
2022-09-09T09:57:14.381Z,73
2022-09-09T10:07:14.463Z,71
2022-09-09T10:17:15.023Z,71
2022-09-09T10:27:15.444Z,70
2022-09-09T10:37:16.243Z,69
2022-09-09T10:47:16.799Z,69
2022-09-09T10:57:17.588Z,69
2022-09-09T11:07:18.182Z,68
2022-09-09T11:27:19.874Z,64
2022-09-09T11:37:20.917Z,66
2022-09-09T11:47:21.842Z,66
2022-09-09T12:07:22.440Z,67
2022-09-09T12:17:22.868Z,67
2022-09-09T12:27:23.142Z,67
2022-09-09T12:57:24.892Z,87
2022-09-09T13:07:25.173Z,91
2022-09-09T13:17:25.975Z,92
2022-09-09T13:27:26.921Z,93
2022-09-09T13:37:27.949Z,94
2022-09-09T13:47:28.529Z,97
2022-09-09T13:57:29.514Z,98
2022-09-09T14:07:30.497Z,99
2022-09-09T14:17:31.716Z,99
2022-09-09T14:27:31.853Z,100
2022-09-09T14:37:32.793Z,98
2022-09-09T14:47:33.662Z,99
2022-09-09T14:57:34.319Z,97
2022-09-09T15:07:35.141Z,95
2022-09-09T15:17:35.971Z,95
2022-09-09T15:37:37.141Z,100
2022-09-09T15:47:37.821Z,100
2022-09-09T15:57:38.331Z,100
2022-09-09T16:07:39.341Z,100
2022-09-09T16:17:39.529Z,100
2022-09-09T16:27:39.799Z,100
2022-09-09T16:37:40.059Z,100
2022-09-09T16:47:40.930Z,100
2022-09-09T16:57:41.304Z,100
2022-09-09T17:07:42.131Z,100
2022-09-09T17:17:42.925Z,100
2022-09-09T17:27:43.144Z,100
2022-09-09T17:37:43.328Z,100
2022-09-09T17:47:43.622Z,100
2022-09-09T17:57:43.865Z,100
2022-09-09T18:07:44.259Z,100
2022-09-09T18:17:44.537Z,100
2022-09-09T18:27:45.587Z,100
2022-09-09T18:37:46.102Z,100
2022-09-09T18:47:46.396Z,100
2022-09-09T18:57:46.537Z,100
2022-09-09T19:07:46.937Z,100
2022-09-09T19:17:47.997Z,100
2022-09-09T19:37:49.937Z,100
2022-09-09T19:47:50.760Z,100
2022-09-09T19:57:50.940Z,100
2022-09-09T20:17:52.587Z,100
2022-09-09T20:27:52.730Z,100
2022-09-09T20:37:53.460Z,100
2022-09-09T20:47:53.990Z,100
2022-09-09T20:57:54.473Z,100
2022-09-09T21:07:55.324Z,100
2022-09-09T21:17:55.660Z,100
2022-09-09T21:27:55.898Z,100
2022-09-09T21:37:56.593Z,100
2022-09-09T21:47:57.483Z,100
2022-09-09T21:57:58.409Z,100
2022-09-09T22:07:59.191Z,100
2022-09-09T22:17:59.916Z,100
2022-09-09T22:28:00.530Z,100
2022-09-09T22:38:01.373Z,100
2022-09-09T22:48:02.338Z,100
2022-09-09T22:58:03.385Z,100
2022-09-09T23:08:03.527Z,100
2022-09-09T23:18:03.702Z,100
2022-09-09T23:28:04.356Z,100
2022-09-09T23:38:04.899Z,100
2022-09-09T23:48:05.067Z,100
2022-09-09T23:58:05.507Z,100
